createdAt,value
2023-04-21T00:00:52.682Z,14.07
2023-04-21T00:03:21.926Z,13.40
2023-04-21T00:05:48.758Z,19.98
2023-04-21T00:08:16.856Z,13.55
2023-04-21T00:10:43.955Z,20.42
2023-04-21T00:13:10.903Z,17.73
2023-04-21T00:15:37.533Z,15.32
2023-04-21T00:18:04.508Z,15.18
2023-04-21T00:20:31.490Z,15.25
2023-04-21T00:22:58.626Z,14.23
2023-04-21T00:25:25.933Z,13.63
2023-04-21T00:27:52.592Z,13.93
2023-04-21T00:30:19.264Z,12.38
2023-04-21T00:32:46.240Z,12.32
2023-04-21T00:35:12.846Z,12.52
2023-04-21T00:37:40.411Z,11.45
2023-04-21T00:40:07.792Z,11.48
2023-04-21T00:42:37.017Z,11.35
2023-04-21T00:45:06.002Z,11.60
2023-04-21T00:47:32.725Z,9.70
2023-04-21T00:49:59.687Z,10.18
2023-04-21T00:52:27.152Z,10.02
2023-04-21T00:54:54.209Z,12.50
2023-04-21T00:57:21.476Z,12.52
2023-04-21T00:59:48.328Z,14.38
2023-04-21T01:02:17.002Z,13.25
2023-04-21T01:04:45.483Z,15.43
2023-04-21T01:07:12.859Z,14.45
2023-04-21T01:09:39.680Z,18.55
2023-04-21T01:12:11.158Z,17.10
2023-04-21T01:14:39.114Z,16.48
2023-04-21T01:17:06.244Z,18.38
2023-04-21T01:19:35.757Z,16.85
2023-04-21T01:22:03.747Z,16.85
2023-04-21T01:24:40.892Z,15.48
2023-04-21T01:27:19.034Z,15.13
2023-04-21T01:29:50.672Z,16.73
2023-04-21T01:32:20.406Z,15.85
2023-04-21T01:34:47.951Z,17.05
2023-04-21T01:37:20.965Z,14.75
2023-04-21T01:39:54.303Z,15.05
2023-04-21T01:42:26.864Z,14.85
2023-04-21T01:44:54.576Z,12.88
2023-04-21T01:47:22.434Z,12.02
2023-04-21T01:49:49.111Z,11.57
2023-04-21T01:52:15.969Z,11.13
2023-04-21T01:54:42.654Z,11.00
2023-04-21T01:57:09.373Z,12.02
2023-04-21T01:59:37.239Z,12.02
2023-04-21T02:02:04.526Z,10.98
2023-04-21T02:04:33.701Z,11.65
2023-04-21T02:07:00.423Z,17.13
2023-04-21T02:09:27.038Z,15.77
2023-04-21T02:11:55.421Z,14.35
2023-04-21T02:14:22.037Z,15.57
2023-04-21T02:16:48.661Z,14.52
2023-04-21T02:19:15.279Z,11.50
2023-04-21T02:21:41.843Z,12.90
2023-04-21T02:24:08.434Z,10.60
2023-04-21T02:26:35.040Z,12.80
2023-04-21T02:29:02.175Z,11.07
2023-04-21T02:31:29.162Z,10.63
2023-04-21T02:33:55.988Z,9.98
2023-04-21T02:36:22.534Z,11.35
2023-04-21T02:38:49.094Z,10.52
2023-04-21T02:41:15.673Z,11.38
2023-04-21T02:43:42.230Z,11.15
2023-04-21T02:46:09.174Z,11.00
2023-04-21T02:48:36.430Z,12.65
2023-04-21T02:51:04.272Z,10.45
2023-04-21T02:53:31.648Z,9.45
2023-04-21T02:55:58.303Z,10.85
2023-04-21T02:58:25.499Z,11.82
2023-04-21T03:00:52.113Z,11.73
2023-04-21T03:03:19.075Z,11.63
2023-04-21T03:05:45.972Z,10.07
2023-04-21T03:08:12.614Z,11.68
2023-04-21T03:10:39.215Z,15.73
2023-04-21T03:13:06.006Z,17.80
2023-04-21T03:15:32.549Z,19.65
2023-04-21T03:18:01.798Z,18.45
2023-04-21T03:20:28.704Z,20.35
2023-04-21T03:22:55.313Z,19.15
2023-04-21T03:25:22.223Z,19.02
2023-04-21T03:27:49.218Z,18.85
2023-04-21T03:30:15.884Z,17.35
2023-04-21T03:32:42.594Z,19.92
2023-04-21T03:35:09.300Z,17.98
2023-04-21T03:37:36.057Z,18.83
2023-04-21T03:40:06.076Z,17.73
2023-04-21T03:42:33.348Z,17.50
2023-04-21T03:45:03.917Z,17.60
2023-04-21T03:47:33.446Z,18.17
2023-04-21T03:50:00.263Z,16.48
2023-04-21T03:52:26.854Z,15.35
2023-04-21T03:54:53.798Z,14.45
2023-04-21T03:57:20.658Z,17.92
2023-04-21T03:59:47.169Z,16.35
2023-04-21T04:02:13.807Z,17.27
2023-04-21T04:04:40.562Z,15.98
2023-04-21T04:07:08.768Z,14.65
2023-04-21T04:09:35.364Z,16.80
2023-04-21T04:12:03.382Z,14.90
2023-04-21T04:14:30.296Z,14.63
2023-04-21T04:16:58.741Z,15.98
2023-04-21T04:19:30.865Z,14.35
2023-04-21T04:22:01.280Z,16.65
2023-04-21T04:24:28.215Z,21.02
2023-04-21T04:26:55.280Z,19.70
2023-04-21T04:29:22.686Z,19.90
2023-04-21T04:31:52.332Z,20.25
2023-04-21T04:34:19.607Z,19.15
2023-04-21T04:36:48.001Z,19.50
2023-04-21T04:39:16.356Z,21.38
2023-04-21T04:41:43.156Z,24.75
2023-04-21T04:44:11.466Z,27.40
2023-04-21T04:46:39.309Z,22.85
2023-04-21T04:49:05.974Z,23.50
2023-04-21T04:51:32.772Z,22.85
2023-04-21T04:53:59.493Z,25.83
2023-04-21T04:56:26.021Z,25.00
2023-04-21T04:58:52.710Z,24.70
2023-04-21T05:01:19.431Z,24.67
2023-04-21T05:03:46.843Z,25.45
2023-04-21T05:06:14.330Z,23.88
2023-04-21T05:08:43.740Z,23.75
2023-04-21T05:11:10.320Z,23.25
2023-04-21T05:13:39.632Z,23.58
2023-04-21T05:16:07.284Z,23.85
2023-04-21T05:18:33.827Z,23.17
2023-04-21T05:21:00.521Z,22.35
2023-04-21T05:23:27.304Z,23.58
2023-04-21T05:25:53.852Z,22.58
2023-04-21T05:28:20.488Z,23.40
2023-04-21T05:30:47.119Z,24.67
2023-04-21T05:33:13.930Z,24.27
2023-04-21T05:35:40.705Z,26.10
2023-04-21T05:38:07.263Z,25.85
2023-04-21T05:40:34.020Z,21.63
2023-04-21T05:43:00.650Z,20.33
2023-04-21T05:45:27.167Z,19.48
2023-04-21T05:47:53.722Z,20.70
2023-04-21T05:50:20.389Z,20.80
2023-04-21T05:52:46.938Z,22.15
2023-04-21T05:55:13.705Z,22.08
2023-04-21T05:57:40.338Z,22.80
2023-04-21T06:00:07.638Z,18.95
2023-04-21T06:02:34.305Z,21.20
2023-04-21T06:05:01.220Z,19.98
2023-04-21T06:07:28.146Z,21.65
2023-04-21T06:09:57.145Z,22.17
2023-04-21T06:12:23.687Z,19.55
2023-04-21T06:14:50.417Z,20.25
2023-04-21T06:17:17.955Z,18.48
2023-04-21T06:19:44.767Z,18.70
2023-04-21T06:22:11.322Z,20.38
2023-04-21T06:24:37.868Z,18.92
2023-04-21T06:27:09.363Z,21.08
2023-04-21T06:29:36.209Z,19.35
2023-04-21T06:32:02.859Z,18.55
2023-04-21T06:34:29.726Z,21.00
2023-04-21T06:36:56.258Z,18.52
2023-04-21T06:39:22.850Z,18.77
2023-04-21T06:41:49.435Z,18.55
2023-04-21T06:44:17.830Z,16.95
2023-04-21T06:46:44.705Z,18.10
2023-04-21T06:49:11.864Z,14.35
2023-04-21T06:51:39.373Z,14.10
2023-04-21T06:54:06.183Z,13.40
2023-04-21T06:56:33.372Z,12.82
2023-04-21T06:59:00.374Z,14.48
2023-04-21T07:01:26.994Z,14.32
2023-04-21T07:03:53.845Z,14.90
2023-04-21T07:06:20.535Z,14.93
2023-04-21T07:08:47.126Z,14.38
2023-04-21T07:11:15.548Z,15.38
2023-04-21T07:13:42.086Z,15.38
2023-04-21T07:16:08.662Z,14.68
2023-04-21T07:18:35.296Z,15.18
2023-04-21T07:21:01.881Z,15.20
2023-04-21T07:23:28.545Z,16.17
2023-04-21T07:25:57.752Z,15.02
2023-04-21T07:28:24.408Z,12.63
2023-04-21T07:30:53.872Z,14.75
2023-04-21T07:33:20.557Z,14.60
2023-04-21T07:35:47.306Z,14.35
2023-04-21T07:38:13.860Z,13.45
2023-04-21T07:40:40.807Z,13.23
2023-04-21T07:43:07.366Z,10.75
2023-04-21T07:45:33.876Z,11.57
2023-04-21T07:48:00.602Z,12.45
2023-04-21T07:50:27.230Z,13.05
2023-04-21T07:52:53.798Z,12.40
2023-04-21T07:55:23.318Z,10.10
2023-04-21T07:57:50.457Z,11.13
2023-04-21T08:00:17.398Z,9.90
2023-04-21T08:02:44.115Z,10.15
2023-04-21T08:05:11.212Z,10.73
2023-04-21T08:07:38.863Z,9.80
2023-04-21T08:10:07.801Z,10.13
2023-04-21T08:12:34.462Z,9.98
2023-04-21T08:15:05.709Z,10.02
2023-04-21T08:17:32.391Z,11.35
2023-04-21T08:19:59.677Z,9.85
2023-04-21T08:22:26.682Z,9.38
2023-04-21T08:24:53.302Z,11.60
2023-04-21T08:27:19.977Z,11.05
2023-04-21T08:29:46.626Z,10.48
2023-04-21T08:32:13.640Z,9.65
2023-04-21T08:34:40.364Z,9.85
2023-04-21T08:37:06.945Z,10.65
2023-04-21T08:39:33.769Z,10.80
2023-04-21T08:42:02.314Z,9.80
2023-04-21T08:44:28.860Z,10.68
2023-04-21T08:46:56.720Z,11.25
2023-04-21T08:49:24.471Z,11.65
2023-04-21T08:51:51.330Z,9.43
2023-04-21T08:54:17.913Z,9.95
2023-04-21T08:56:44.502Z,10.73
2023-04-21T08:59:11.166Z,10.00
2023-04-21T09:02:10.208Z,10.75
2023-04-21T09:04:45.139Z,10.48
2023-04-21T09:07:12.906Z,9.75
2023-04-21T09:09:52.484Z,12.10
2023-04-21T09:12:19.542Z,11.38
2023-04-21T09:14:46.551Z,10.35
2023-04-21T09:17:16.305Z,10.82
2023-04-21T09:19:43.379Z,11.15
2023-04-21T09:22:14.117Z,10.05
2023-04-21T09:24:58.088Z,10.93
2023-04-21T09:27:24.783Z,10.32
2023-04-21T09:29:51.649Z,10.88
2023-04-21T09:32:19.717Z,9.38
2023-04-21T09:34:47.378Z,13.05
2023-04-21T09:37:18.988Z,10.57
2023-04-21T09:42:39.270Z,10.70
2023-04-21T09:45:29.038Z,10.57
2023-04-21T09:47:59.105Z,10.93
2023-04-21T09:51:01.785Z,8.90
2023-04-21T09:53:17.069Z,9.68
2023-04-21T09:55:48.318Z,8.52
2023-04-21T09:58:19.631Z,8.88
2023-04-21T10:00:47.288Z,9.60
2023-04-21T10:03:17.413Z,10.18
2023-04-21T10:05:44.266Z,7.03
2023-04-21T10:08:12.082Z,8.82
2023-04-21T10:10:39.236Z,7.28
2023-04-21T10:13:05.990Z,7.60
2023-04-21T10:15:35.575Z,7.10
2023-04-21T10:18:22.457Z,7.65
2023-04-21T10:20:56.503Z,6.68
2023-04-21T10:23:43.356Z,7.25
2023-04-21T10:26:11.914Z,8.18
2023-04-21T10:28:46.749Z,7.70
2023-04-21T10:31:51.241Z,7.57
2023-04-21T10:34:21.893Z,6.78
2023-04-21T10:36:51.829Z,6.72
2023-04-21T10:39:29.791Z,7.10
2023-04-21T10:42:00.552Z,6.38
2023-04-21T10:44:29.070Z,6.88
2023-04-21T10:46:58.956Z,7.15
2023-04-21T10:49:28.453Z,5.60
2023-04-21T10:51:57.790Z,5.05
2023-04-21T10:54:28.628Z,5.05
2023-04-21T10:56:59.208Z,5.60
2023-04-21T10:59:28.698Z,5.13
2023-04-21T11:01:55.913Z,6.10
2023-04-21T11:04:23.972Z,5.57
2023-04-21T11:07:14.104Z,5.88
2023-04-21T11:09:42.311Z,5.50
2023-04-21T11:12:11.163Z,5.80
2023-04-21T11:14:39.417Z,6.15
2023-04-21T11:17:17.535Z,5.50
2023-04-21T11:19:50.062Z,5.53
2023-04-21T11:22:18.491Z,5.57
2023-04-21T11:24:48.702Z,5.65
2023-04-21T11:27:15.560Z,5.32
2023-04-21T11:29:42.288Z,5.85
2023-04-21T11:32:09.400Z,5.82
2023-04-21T11:34:39.593Z,5.82
2023-04-21T11:37:14.111Z,5.53
2023-04-21T11:39:41.918Z,5.88
2023-04-21T11:42:08.483Z,5.97
2023-04-21T11:44:43.212Z,6.22
2023-04-21T11:47:12.883Z,5.70
2023-04-21T11:49:48.014Z,6.47
2023-04-21T11:52:22.760Z,5.20
2023-04-21T11:54:54.813Z,5.75
2023-04-21T11:57:22.893Z,4.90
2023-04-21T11:59:49.559Z,5.72
2023-04-21T12:02:34.661Z,5.28
2023-04-21T12:05:06.820Z,5.28
2023-04-21T12:07:35.700Z,6.00
2023-04-21T12:10:08.978Z,5.85
2023-04-21T12:12:39.177Z,4.82
2023-04-21T12:15:10.994Z,4.70
2023-04-21T12:20:07.353Z,4.60
2023-04-21T12:22:34.025Z,5.22
2023-04-21T12:25:00.647Z,4.70
2023-04-21T12:27:27.884Z,3.88
2023-04-21T12:29:57.697Z,5.78
2023-04-21T12:32:24.492Z,4.85
2023-04-21T12:34:51.190Z,4.22
2023-04-21T12:37:18.766Z,5.32
2023-04-21T12:39:45.330Z,4.93
2023-04-21T12:42:12.090Z,4.45
2023-04-21T12:44:39.103Z,4.43
2023-04-21T12:47:06.302Z,4.63
2023-04-21T12:49:32.946Z,4.28
2023-04-21T12:51:59.686Z,3.97
2023-04-21T12:54:26.192Z,5.45
2023-04-21T12:56:53.125Z,4.20
2023-04-21T12:59:19.666Z,4.53
2023-04-21T13:01:46.357Z,4.65
2023-04-21T13:04:13.438Z,4.78
2023-04-21T13:06:40.649Z,4.50
2023-04-21T13:09:07.632Z,5.65
2023-04-21T13:11:34.553Z,4.20
2023-04-21T13:14:01.109Z,5.03
2023-04-21T13:16:30.078Z,5.00
2023-04-21T13:18:57.086Z,5.65
2023-04-21T13:21:23.681Z,4.93
2023-04-21T13:23:50.239Z,4.82
2023-04-21T13:26:17.561Z,4.75
2023-04-21T13:28:44.203Z,3.88
2023-04-21T13:31:11.302Z,5.13
2023-04-21T13:33:38.035Z,5.68
2023-04-21T13:36:05.378Z,4.80
2023-04-21T13:38:32.393Z,4.82
2023-04-21T13:40:59.013Z,4.47
2023-04-21T13:43:25.663Z,4.30
2023-04-21T13:45:52.503Z,4.18
2023-04-21T13:48:21.262Z,4.80
2023-04-21T13:50:48.046Z,4.80
2023-04-21T13:53:19.257Z,4.15
2023-04-21T13:55:47.561Z,5.30
2023-04-21T13:58:15.855Z,4.65
2023-04-21T14:00:42.934Z,4.85
2023-04-21T14:03:10.104Z,4.95
2023-04-21T14:05:37.154Z,4.22
2023-04-21T14:08:03.859Z,4.30
2023-04-21T14:10:31.196Z,4.05
2023-04-21T14:12:57.799Z,4.90
2023-04-21T14:15:26.289Z,4.75
2023-04-21T14:17:53.544Z,5.00
2023-04-21T14:20:20.376Z,4.63
2023-04-21T14:22:46.879Z,4.68
2023-04-21T14:25:15.337Z,5.18
2023-04-21T14:27:41.975Z,4.78
2023-04-21T14:30:10.460Z,4.30
2023-04-21T14:32:37.307Z,4.03
2023-04-21T14:35:05.588Z,4.85
2023-04-21T14:37:32.982Z,4.85
2023-04-21T14:39:59.845Z,4.55
2023-04-21T14:42:26.719Z,4.18
2023-04-21T14:44:53.722Z,4.72
2023-04-21T14:47:21.495Z,4.95
2023-04-21T14:49:49.853Z,4.07
2023-04-21T14:52:16.498Z,5.07
2023-04-21T14:54:43.328Z,3.90
2023-04-21T14:57:18.751Z,5.20
2023-04-21T14:59:48.492Z,3.42
2023-04-21T15:02:15.419Z,4.10
2023-04-21T15:04:42.352Z,3.97
2023-04-21T15:07:09.085Z,4.07
2023-04-21T15:09:36.434Z,4.60
2023-04-21T15:12:03.603Z,4.00
2023-04-21T15:14:30.881Z,3.85
2023-04-21T15:16:57.575Z,3.78
2023-04-21T15:19:25.754Z,4.15
2023-04-21T15:21:52.854Z,3.92
2023-04-21T15:24:19.523Z,3.58
2023-04-21T15:26:46.064Z,4.05
2023-04-21T15:29:12.723Z,4.00
2023-04-21T15:31:43.679Z,4.53
2023-04-21T15:34:10.559Z,4.53
2023-04-21T15:36:37.177Z,3.92
2023-04-21T15:39:03.989Z,5.47
2023-04-21T15:41:31.564Z,4.85
2023-04-21T15:43:59.943Z,3.63
2023-04-21T15:46:26.931Z,4.20
2023-04-21T15:48:54.024Z,5.53
2023-04-21T15:51:20.825Z,4.72
2023-04-21T15:53:48.910Z,4.35
2023-04-21T15:56:16.756Z,4.07
2023-04-21T15:58:43.642Z,4.03
2023-04-21T16:01:10.393Z,4.20
2023-04-21T16:03:37.296Z,5.45
2023-04-21T16:06:04.308Z,5.10
2023-04-21T16:08:33.138Z,4.40
2023-04-21T16:11:00.391Z,5.22
2023-04-21T16:13:27.393Z,4.72
2023-04-21T16:15:54.033Z,5.20
2023-04-21T16:18:20.983Z,5.15
2023-04-21T16:20:47.836Z,5.00
2023-04-21T16:23:15.379Z,5.47
2023-04-21T16:25:42.568Z,3.75
2023-04-21T16:28:09.767Z,3.75
2023-04-21T16:30:38.536Z,4.60
2023-04-21T16:33:05.337Z,4.43
2023-04-21T16:35:32.031Z,4.85
2023-04-21T16:37:58.749Z,5.35
2023-04-21T16:40:26.407Z,5.13
2023-04-21T16:42:53.102Z,3.97
2023-04-21T16:45:19.777Z,5.80
2023-04-21T16:47:46.653Z,4.10
2023-04-21T16:50:15.947Z,5.18
2023-04-21T16:52:42.538Z,4.93
2023-04-21T16:55:09.284Z,5.15
2023-04-21T16:57:36.190Z,5.05
2023-04-21T17:00:06.877Z,5.43
2023-04-21T17:02:34.154Z,5.50
2023-04-21T17:05:01.149Z,5.82
2023-04-21T17:07:27.892Z,5.75
2023-04-21T17:09:54.570Z,6.07
2023-04-21T17:12:21.540Z,5.60
2023-04-21T17:14:48.582Z,5.63
2023-04-21T17:17:15.612Z,5.85
2023-04-21T17:19:42.247Z,5.78
2023-04-21T17:22:09.150Z,5.72
2023-04-21T17:24:51.833Z,6.13
2023-04-21T17:27:21.407Z,6.38
2023-04-21T17:29:48.193Z,7.35
2023-04-21T17:32:18.031Z,7.25
2023-04-21T17:34:45.068Z,6.07
2023-04-21T17:37:11.657Z,6.63
2023-04-21T17:39:38.673Z,8.07
2023-04-21T17:42:05.336Z,7.72
2023-04-21T17:44:31.908Z,6.25
2023-04-21T17:46:58.459Z,6.90
2023-04-21T17:49:25.428Z,7.75
2023-04-21T17:51:52.098Z,7.13
2023-04-21T17:54:19.085Z,6.78
2023-04-21T17:56:46.310Z,6.55
2023-04-21T17:59:13.345Z,7.30
2023-04-21T18:01:39.880Z,7.40
2023-04-21T18:04:06.985Z,6.32
2023-04-21T18:06:34.344Z,6.95
2023-04-21T18:09:01.345Z,6.97
2023-04-21T18:11:27.941Z,6.22
2023-04-21T18:13:54.582Z,6.95
2023-04-21T18:16:21.127Z,7.47
2023-04-21T18:18:47.788Z,7.03
2023-04-21T18:21:17.805Z,7.30
2023-04-21T18:23:44.624Z,7.57
2023-04-21T18:26:11.618Z,7.82
2023-04-21T18:28:38.222Z,7.68
2023-04-21T18:31:04.860Z,10.93
2023-04-21T18:33:31.591Z,10.77
2023-04-21T18:35:58.370Z,9.43
2023-04-21T18:38:25.263Z,8.65
2023-04-21T18:40:51.864Z,10.63
2023-04-21T18:43:18.476Z,10.60
2023-04-21T18:45:45.172Z,13.95
2023-04-21T18:48:12.166Z,14.20
2023-04-21T18:50:40.835Z,13.45
2023-04-21T18:53:08.470Z,13.82
2023-04-21T18:55:36.135Z,13.23
2023-04-21T18:58:02.894Z,12.65
2023-04-21T19:00:31.881Z,12.45
2023-04-21T19:03:02.536Z,11.63
2023-04-21T19:05:31.521Z,13.32
2023-04-21T19:07:58.698Z,13.15
2023-04-21T19:10:25.872Z,12.20
2023-04-21T19:12:53.811Z,12.10
2023-04-21T19:15:22.240Z,11.80
2023-04-21T19:17:48.954Z,12.05
2023-04-21T19:20:15.698Z,12.32
2023-04-21T19:22:42.500Z,13.52
2023-04-21T19:25:09.675Z,11.90
2023-04-21T19:27:36.945Z,11.63
2023-04-21T19:30:06.647Z,11.27
2023-04-21T19:32:33.465Z,11.35
2023-04-21T19:35:00.103Z,11.30
2023-04-21T19:37:28.030Z,11.95
2023-04-21T19:39:54.829Z,10.60
2023-04-21T19:42:21.648Z,10.38
2023-04-21T19:44:50.588Z,11.73
2023-04-21T19:47:17.395Z,11.20
2023-04-21T19:49:43.980Z,11.20
2023-04-21T19:52:10.736Z,15.13
2023-04-21T19:54:37.593Z,20.02
2023-04-21T19:57:07.183Z,18.55
2023-04-21T19:59:36.442Z,16.60
2023-04-21T20:02:03.579Z,12.90
2023-04-21T20:04:31.013Z,12.23
2023-04-21T20:06:58.001Z,10.90
2023-04-21T20:09:24.565Z,10.10
2023-04-21T20:11:51.353Z,12.18
2023-04-21T20:14:18.922Z,11.63
2023-04-21T20:16:46.466Z,11.98
2023-04-21T20:19:13.298Z,11.20
2023-04-21T20:21:43.981Z,11.68
2023-04-21T20:24:13.334Z,11.85
2023-04-21T20:26:39.959Z,12.52
2023-04-21T20:29:07.236Z,11.52
2023-04-21T20:31:34.222Z,11.25
2023-04-21T20:34:00.956Z,12.02
2023-04-21T20:36:28.508Z,11.05
2023-04-21T20:38:57.555Z,11.02
2023-04-21T20:41:24.167Z,12.27
2023-04-21T20:43:50.861Z,12.15
2023-04-21T20:46:18.506Z,14.02
2023-04-21T20:48:45.162Z,12.10
2023-04-21T20:51:12.244Z,11.85
2023-04-21T20:53:38.834Z,10.90
2023-04-21T20:56:05.588Z,11.80
2023-04-21T20:58:32.818Z,12.52
2023-04-21T21:00:59.351Z,11.63
2023-04-21T21:03:26.117Z,12.32
2023-04-21T21:05:53.231Z,16.58
2023-04-21T21:08:20.169Z,13.07
2023-04-21T21:10:46.772Z,12.30
2023-04-21T21:13:13.481Z,11.05
2023-04-21T21:15:40.243Z,11.52
2023-04-21T21:18:07.241Z,10.82
2023-04-21T21:20:33.911Z,10.90
2023-04-21T21:23:00.533Z,10.27
2023-04-21T21:25:27.169Z,11.35
2023-04-21T21:27:53.829Z,10.25
2023-04-21T21:30:20.563Z,12.52
2023-04-21T21:32:47.709Z,11.45
2023-04-21T21:35:14.427Z,10.90
2023-04-21T21:37:41.182Z,10.50
2023-04-21T21:40:09.258Z,12.48
2023-04-21T21:42:37.242Z,12.10
2023-04-21T21:45:04.104Z,11.63
2023-04-21T21:47:30.941Z,15.13
2023-04-21T21:49:58.867Z,15.13
2023-04-21T21:52:28.656Z,13.80
2023-04-21T21:54:55.742Z,15.75
2023-04-21T21:57:22.626Z,15.55
2023-04-21T21:59:49.210Z,14.60
2023-04-21T22:02:15.874Z,14.93
2023-04-21T22:04:42.995Z,16.90
2023-04-21T22:07:09.649Z,15.52
2023-04-21T22:09:37.256Z,16.38
2023-04-21T22:12:06.712Z,17.42
2023-04-21T22:14:35.926Z,15.75
2023-04-21T22:17:02.922Z,16.48
2023-04-21T22:19:31.121Z,17.95
2023-04-21T22:21:57.994Z,18.90
2023-04-21T22:24:24.506Z,17.40
2023-04-21T22:26:51.136Z,17.27
2023-04-21T22:29:17.839Z,16.73
2023-04-21T22:31:44.688Z,17.23
2023-04-21T22:34:14.916Z,21.45
2023-04-21T22:36:41.586Z,22.58
2023-04-21T22:39:08.116Z,21.50
2023-04-21T22:41:38.354Z,20.38
2023-04-21T22:44:05.539Z,16.83
2023-04-21T22:46:33.465Z,17.00
2023-04-21T22:49:02.428Z,19.90
2023-04-21T22:51:29.808Z,18.15
2023-04-21T22:53:56.630Z,18.80
2023-04-21T22:56:23.342Z,20.65
2023-04-21T22:58:50.001Z,17.55
2023-04-21T23:01:16.769Z,17.92
2023-04-21T23:03:43.601Z,20.40
2023-04-21T23:06:10.139Z,20.58
2023-04-21T23:08:36.687Z,19.90
2023-04-21T23:11:06.303Z,22.42
2023-04-21T23:13:32.928Z,21.50
2023-04-21T23:15:59.628Z,22.10
2023-04-21T23:18:26.318Z,20.13
2023-04-21T23:20:53.034Z,20.88
2023-04-21T23:23:19.836Z,21.73
2023-04-21T23:25:46.409Z,24.73
2023-04-21T23:28:12.991Z,26.10
2023-04-21T23:30:39.541Z,23.52
2023-04-21T23:33:06.490Z,24.02
2023-04-21T23:35:33.149Z,23.48
2023-04-21T23:37:59.677Z,23.60
2023-04-21T23:40:26.245Z,21.38
2023-04-21T23:42:52.845Z,22.85
2023-04-21T23:45:19.560Z,25.77
2023-04-21T23:47:46.261Z,30.10
2023-04-21T23:50:12.933Z,31.40
2023-04-21T23:52:42.022Z,27.85
2023-04-21T23:55:10.115Z,25.05
2023-04-21T23:57:37.004Z,31.15
